Time;durP1;ratioP1;P1;durP2;ratioP2;P2;SDS_P1;SDS_P2;PMS_P1;PMS_P2;Temp;Humidity;BMP_temperature;BMP_pressure;BME280_temperature;BME280_humidity;BME280_pressure;Samples;Min_cycle;Max_cycle;Signal;HPM_P1;HPM_P2
2023/05/08 00:05:31;;;;;;;3.35;1.85;;;;;;;;;;6220337;21;2115599;-75
2023/05/08 00:08:00;;;;;;;;;;;;;;;;;;6297603;22;20023;-76
2023/05/08 00:10:27;;;;;;;3.60;1.80;;;;;;;;;;6257507;22;19942;-78
2023/05/08 00:34:35;;;;;;;3.28;1.98;;;;;;;;;;4959532;27;4263696;-75
2023/05/08 00:37:02;;;;;;;7.05;2.50;;;;;;;;;;5076201;28;20051;-78
2023/05/08 00:39:29;;;;;;;5.15;2.15;;;;;;;;;;5072289;28;20056;-78
2023/05/08 00:56:02;;;;;;;4.07;2.17;;;;;;;;;;5032271;27;20524;-73
2023/05/08 00:58:29;;;;;;;8.80;3.03;;;;;;;;;;5031440;28;20161;-72
2023/05/08 01:00:57;;;;;;;4.15;2.38;;;;;;;;;;5019580;28;20059;-73
2023/05/08 01:03:26;;;;;;;4.70;2.00;;;;;;;;;;4932560;28;20086;-73
2023/05/08 01:05:54;;;;;;;4.00;2.03;;;;;;;;;;4932496;28;20047;-73
2023/05/08 01:08:21;;;;;;;3.92;2.10;;;;;;;;;;4922589;28;20158;-73
2023/05/08 01:10:52;;;;;;;5.32;2.28;;;;;;;;;;4933266;28;20082;-73
2023/05/08 01:18:13;;;;;;;3.42;2.00;;;;;;;;;;4887456;29;20288;-73
2023/05/08 01:20:45;;;;;;;8.02;2.50;;;;;;;;;;4944795;28;20050;-73
2023/05/08 01:50:18;;;;;;;4.40;2.45;;;;;;;;;;6224953;22;2275895;-80
2023/05/08 01:52:49;;;;;;;3.55;2.10;;;;;;;;;;6137470;23;20025;-79
2023/05/08 01:55:21;;;;;;;5.80;2.30;;;;;;;;;;6142972;23;20036;-77
2023/05/08 01:57:53;;;;;;;5.50;2.40;;;;;;;;;;6141471;23;20048;-78
2023/05/08 02:00:22;;;;;;;5.07;2.45;;;;;;;;;;6132541;23;20021;-79
2023/05/08 02:02:49;;;;;;;2.60;1.95;;;;;;;;;;6141156;23;20083;-76
2023/05/08 02:18:28;;;;;;;4.05;2.10;;;;;;;;;;6287236;21;1451756;-75
2023/05/08 02:20:55;;;;;;;6.50;2.47;;;;;;;;;;6197192;22;20025;-76
2023/05/08 02:38:52;;;;;;;5.28;2.55;;;;;;;;;;6148774;22;1464986;-74
2023/05/08 03:02:05;;;;;;;4.15;2.33;;;;;;;;;;6086549;22;20499;-79
2023/05/08 03:33:15;;;;;;;4.75;2.03;;;;;;;;;;4974916;27;20530;-78
2023/05/08 03:40:12;;;;;;;3.95;2.20;;;;;;;;;;5039778;27;20445;-77
2023/05/08 04:06:09;;;;;;;4.97;2.25;;;;;;;;;;5030889;27;20538;-76
2023/05/08 04:08:40;;;;;;;3.65;1.92;;;;;;;;;;4986884;28;20148;-75
2023/05/08 04:11:13;;;;;;;4.60;2.28;;;;;;;;;;5013009;28;20044;-79
2023/05/08 04:13:43;;;;;;;5.40;2.15;;;;;;;;;;5011029;28;20052;-77
2023/05/08 04:16:13;;;;;;;4.72;2.40;;;;;;;;;;4995612;28;20066;-76
2023/05/08 04:28:48;;;;;;;6.57;2.22;;;;;;;;;;3159663;22;21819;-74
2023/05/08 04:56:45;;;;;;;5.45;3.03;;;;;;;;;;3676020;22;20243;-81
2023/05/08 05:11:51;;;;;;;6.60;3.20;;;;;;;;;;6239869;22;1596172;-79
2023/05/08 05:14:21;;;;;;;6.55;3.13;;;;;;;;;;6262038;22;20063;-75
2023/05/08 05:16:57;;;;;;;6.28;3.03;;;;;;;;;;6200092;23;20036;-81
2023/05/08 05:19:33;;;;;;;5.10;2.97;;;;;;;;;;6130405;22;20028;-79
2023/05/08 05:22:03;;;;;;;6.10;3.28;;;;;;;;;;6178270;23;20111;-80
2023/05/08 05:24:53;;;;;;;6.22;2.92;;;;;;;;;;6171189;23;20024;-79
2023/05/08 05:27:28;;;;;;;6.00;3.22;;;;;;;;;;6142313;23;20048;-78
2023/05/08 05:52:55;;;;;;;9.10;4.60;;;;;;;;;;6261165;21;2176763;-78
2023/05/08 05:55:24;;;;;;;10.85;6.10;;;;;;;;;;6231045;22;20028;-78
2023/05/08 05:57:51;;;;;;;10.40;5.50;;;;;;;;;;6116119;23;20031;-78
2023/05/08 06:00:29;;;;;;;11.23;5.72;;;;;;;;;;6107348;23;20080;-81
2023/05/08 06:03:21;;;;;;;12.27;6.77;;;;;;;;;;6119142;23;20025;-79
2023/05/08 06:11:07;;;;;;;12.10;6.60;;;;;;;;;;5061519;27;20491;-73
2023/05/08 06:13:33;;;;;;;;;;;;;;;;;;5057925;28;20072;-73
2023/05/08 06:16:04;;;;;;;11.95;6.55;;;;;;;;;;5046771;28;19932;-74
2023/05/08 06:21:38;;;;;;;11.82;6.57;;;;;;;;;;4883348;27;7189991;-73
2023/05/08 06:24:06;;;;;;;14.00;6.25;;;;;;;;;;5097159;28;20087;-74
2023/05/08 06:26:34;;;;;;;11.30;6.28;;;;;;;;;;5063134;28;20133;-74
2023/05/08 06:29:04;;;;;;;12.25;6.38;;;;;;;;;;5026707;28;20053;-73
2023/05/08 06:45:19;;;;;;;;;;;;;;;;;;5697248;22;12895453;-72
2023/05/08 06:47:50;;;;;;;11.13;6.90;;;;;;;;;;6199205;23;19920;-72
2023/05/08 06:50:18;;;;;;;12.00;6.53;;;;;;;;;;6048854;23;20030;-72
2023/05/08 06:52:53;;;;;;;12.13;6.93;;;;;;;;;;6082798;23;20133;-75
2023/05/08 06:55:22;;;;;;;;;;;;;;;;;;6052070;23;20171;-73
2023/05/08 06:58:06;;;;;;;13.90;7.30;;;;;;;;;;5912001;23;19970;-71
2023/05/08 07:06:08;;;;;;;17.83;8.05;;;;;;;;;;4971022;28;20056;-73
2023/05/08 07:08:36;;;;;;;12.93;6.90;;;;;;;;;;4917698;29;20048;-74
2023/05/08 07:11:03;;;;;;;14.07;7.80;;;;;;;;;;4856604;29;20059;-71
2023/05/08 07:13:30;;;;;;;13.38;7.25;;;;;;;;;;4862951;29;20048;-73
2023/05/08 07:16:04;;;;;;;13.52;7.35;;;;;;;;;;4871146;29;20052;-73
2023/05/08 07:18:31;;;;;;;12.77;7.13;;;;;;;;;;4869335;29;20152;-72
2023/05/08 07:23:29;;;;;;;14.15;7.90;;;;;;;;;;4813873;29;20037;-70
2023/05/08 07:25:59;;;;;;;13.55;7.22;;;;;;;;;;4816459;29;20061;-73
2023/05/08 07:28:32;;;;;;;13.35;7.20;;;;;;;;;;4805229;29;20042;-73
2023/05/08 07:36:16;;;;;;;14.02;7.68;;;;;;;;;;4865052;29;20060;-71
2023/05/08 07:38:52;;;;;;;14.73;7.65;;;;;;;;;;4891165;29;20275;-71
2023/05/08 07:41:21;;;;;;;14.52;7.93;;;;;;;;;;4865543;29;20052;-74
2023/05/08 07:43:50;;;;;;;15.52;7.70;;;;;;;;;;4875093;29;20180;-73
2023/05/08 07:46:21;;;;;;;14.68;8.20;;;;;;;;;;4905101;28;20058;-71
2023/05/08 07:49:03;;;;;;;14.00;7.65;;;;;;;;;;4883303;29;20142;-71
2023/05/08 07:51:34;;;;;;;15.27;8.27;;;;;;;;;;4854769;29;20044;-72
2023/05/08 07:54:10;;;;;;;13.32;7.15;;;;;;;;;;4886912;29;20043;-73
2023/05/08 07:59:14;;;;;;;13.57;7.95;;;;;;;;;;4828976;29;20078;-72
2023/05/08 08:06:49;;;;;;;14.15;8.52;;;;;;;;;;4805407;29;20052;-72
2023/05/08 08:09:27;;;;;;;13.70;8.07;;;;;;;;;;4871113;29;20108;-72
2023/05/08 08:14:22;;;;;;;15.57;8.37;;;;;;;;;;4781052;29;20053;-73
2023/05/08 08:16:51;;;;;;;15.73;9.23;;;;;;;;;;4835273;29;20056;-72
2023/05/08 08:19:20;;;;;;;16.15;8.20;;;;;;;;;;4861252;29;20059;-73
2023/05/08 08:21:47;;;;;;;15.82;8.88;;;;;;;;;;4901534;29;20056;-72
2023/05/08 08:24:16;;;;;;;16.30;9.27;;;;;;;;;;4907017;29;20139;-72
2023/05/08 08:26:47;;;;;;;15.75;8.73;;;;;;;;;;4934246;28;20159;-72
2023/05/08 08:29:23;;;;;;;16.52;9.00;;;;;;;;;;4890648;29;20064;-74
2023/05/08 08:32:02;;;;;;;18.75;10.57;;;;;;;;;;4856986;29;20087;-71
2023/05/08 08:34:28;;;;;;;19.13;9.85;;;;;;;;;;4887640;29;20178;-71
2023/05/08 08:36:58;;;;;;;17.88;10.00;;;;;;;;;;4885346;29;20048;-71
2023/05/08 08:39:34;;;;;;;16.60;10.02;;;;;;;;;;4902687;29;20052;-71
2023/05/08 08:51:46;;;;;;;19.02;9.90;;;;;;;;;;4768868;29;20122;-72
2023/05/08 08:54:24;;;;;;;18.33;10.50;;;;;;;;;;4860475;29;20056;-70
2023/05/08 08:57:09;;;;;;;20.35;10.80;;;;;;;;;;4864517;29;20060;-71
2023/05/08 08:59:38;;;;;;;20.55;11.55;;;;;;;;;;4802699;29;20062;-72
2023/05/08 09:06:58;;;;;;;20.70;12.17;;;;;;;;;;4792127;29;20052;-74
2023/05/08 09:11:52;;;;;;;20.63;11.73;;;;;;;;;;4795141;29;20063;-77
2023/05/08 09:14:25;;;;;;;17.27;10.70;;;;;;;;;;4841371;29;20057;-76
2023/05/08 09:16:53;;;;;;;19.92;11.00;;;;;;;;;;4843524;29;20057;-75
2023/05/08 09:24:43;;;;;;;21.63;11.93;;;;;;;;;;5124561;27;20398;-73
2023/05/08 09:27:26;;;;;;;20.98;11.23;;;;;;;;;;5091382;28;20036;-76
2023/05/08 09:29:59;;;;;;;18.85;10.90;;;;;;;;;;5055680;28;20049;-71
2023/05/08 09:32:30;;;;;;;18.50;10.82;;;;;;;;;;5006137;28;20063;-71
2023/05/08 09:35:04;;;;;;;20.25;11.77;;;;;;;;;;5031910;28;20044;-73
2023/05/08 09:37:30;;;;;;;21.45;11.68;;;;;;;;;;5027987;28;20072;-74
2023/05/08 09:40:12;;;;;;;19.75;11.65;;;;;;;;;;5008220;28;20045;-74
2023/05/08 09:42:50;;;;;;;22.88;11.88;;;;;;;;;;5005910;28;20040;-72
2023/05/08 09:45:30;;;;;;;21.02;13.00;;;;;;;;;;5010003;28;20049;-73
2023/05/08 09:47:59;;;;;;;21.35;13.38;;;;;;;;;;5014669;28;20107;-71
2023/05/08 09:50:31;;;;;;;22.77;11.95;;;;;;;;;;5011875;28;20130;-72
2023/05/08 10:06:14;;;;;;;22.15;12.32;;;;;;;;;;5055710;27;20449;-74
2023/05/08 10:08:43;;;;;;;20.63;11.98;;;;;;;;;;5038121;28;20053;-73
2023/05/08 10:11:30;;;;;;;;;;;;;;;;;;;;;
2023/05/08 10:14:01;;;;;;;24.92;13.35;;;;;;;;;;4960490;28;20175;-70
2023/05/08 10:16:31;;;;;;;22.60;12.52;;;;;;;;;;4953521;28;20066;-74
2023/05/08 10:19:01;;;;;;;23.02;12.93;;;;;;;;;;4931868;28;20074;-72
2023/05/08 10:21:33;;;;;;;20.42;12.60;;;;;;;;;;4931138;28;20145;-74
2023/05/08 10:24:05;;;;;;;23.40;13.13;;;;;;;;;;4914169;28;20051;-74
2023/05/08 10:26:35;;;;;;;23.75;13.82;;;;;;;;;;4913241;28;20056;-73
2023/05/08 10:33:54;;;;;;;28.25;13.65;;;;;;;;;;4860221;28;20112;-74
2023/05/08 10:38:48;;;;;;;31.30;15.20;;;;;;;;;;4776932;28;20070;-71
2023/05/08 10:41:16;;;;;;;33.08;15.30;;;;;;;;;;4822591;29;20049;-73
2023/05/08 10:43:45;;;;;;;29.40;14.15;;;;;;;;;;4834421;29;20133;-71
2023/05/08 10:46:31;;;;;;;29.13;15.10;;;;;;;;;;4838285;29;20057;-72
2023/05/08 10:51:35;;;;;;;27.08;13.73;;;;;;;;;;4866260;29;20145;-69
2023/05/08 10:54:13;;;;;;;24.02;13.20;;;;;;;;;;4889457;28;20051;-70
2023/05/08 10:56:58;;;;;;;22.48;13.55;;;;;;;;;;4886642;29;20090;-73
2023/05/08 10:59:37;;;;;;;24.60;14.15;;;;;;;;;;4875892;29;20090;-73
2023/05/08 11:02:06;;;;;;;29.13;14.02;;;;;;;;;;4923918;28;20043;-71
2023/05/08 11:04:35;;;;;;;27.27;13.52;;;;;;;;;;4972619;28;20086;-71
2023/05/08 11:07:07;;;;;;;25.05;13.65;;;;;;;;;;4962454;28;20074;-74
2023/05/08 11:09:45;;;;;;;26.50;13.75;;;;;;;;;;4970944;28;20058;-71
2023/05/08 11:12:28;;;;;;;23.33;12.63;;;;;;;;;;4998090;28;20144;-69
2023/05/08 11:15:01;;;;;;;26.13;14.52;;;;;;;;;;5008559;28;20358;-72
2023/05/08 11:17:57;;;;;;;24.75;13.98;;;;;;;;;;5013299;28;20089;-69
2023/05/08 11:20:25;;;;;;;27.23;15.00;;;;;;;;;;4976892;28;20069;-71
2023/05/08 11:22:55;;;;;;;27.77;13.65;;;;;;;;;;4998925;28;20045;-69
2023/05/08 11:25:50;;;;;;;24.02;13.82;;;;;;;;;;5012206;28;20223;-71
2023/05/08 11:28:19;;;;;;;24.92;14.07;;;;;;;;;;5013444;28;20112;-68
2023/05/08 11:30:47;;;;;;;28.38;15.63;;;;;;;;;;5008419;28;20057;-73
2023/05/08 11:33:15;;;;;;;27.10;14.45;;;;;;;;;;5010989;28;20076;-72
2023/05/08 11:35:46;;;;;;;25.02;14.77;;;;;;;;;;5017041;28;20057;-71
2023/05/08 11:38:37;;;;;;;27.55;15.20;;;;;;;;;;5015258;28;20049;-72
2023/05/08 11:41:11;;;;;;;24.85;14.82;;;;;;;;;;4896694;28;20059;-72
2023/05/08 11:44:06;;;;;;;24.85;14.52;;;;;;;;;;4905992;29;20047;-70
2023/05/08 11:46:41;;;;;;;23.75;14.30;;;;;;;;;;4912364;28;20078;-69
2023/05/08 11:49:15;;;;;;;25.98;14.10;;;;;;;;;;4895445;28;20078;-68
2023/05/08 11:51:44;;;;;;;24.05;14.02;;;;;;;;;;4945740;28;20074;-72
2023/05/08 11:54:12;;;;;;;;;;;;;;;;;;4988423;28;20056;-69
2023/05/08 11:56:38;;;;;;;;;;;;;;;;;;4990295;28;19928;-70
2023/05/08 11:59:09;;;;;;;19.65;12.68;;;;;;;;;;4977127;28;19924;-69
2023/05/08 12:01:40;;;;;;;23.67;14.48;;;;;;;;;;4894393;28;20434;-69
2023/05/08 12:04:09;;;;;;;26.40;14.50;;;;;;;;;;4926006;28;20069;-72
2023/05/08 12:06:37;;;;;;;24.17;13.68;;;;;;;;;;5001369;28;20161;-71
2023/05/08 12:09:09;;;;;;;22.02;12.48;;;;;;;;;;4990648;28;20064;-71
2023/05/08 12:11:38;;;;;;;22.95;13.73;;;;;;;;;;4987077;28;20066;-69
2023/05/08 12:14:17;;;;;;;;;;;;;;;;;;;;;
2023/05/08 12:16:48;;;;;;;25.75;15.20;;;;;;;;;;4978021;28;20350;-73
2023/05/08 12:19:27;;;;;;;25.75;14.30;;;;;;;;;;4950561;28;20097;-71
2023/05/08 12:21:56;;;;;;;25.83;14.57;;;;;;;;;;4909261;29;20146;-68
2023/05/08 12:24:26;;;;;;;23.55;13.45;;;;;;;;;;4904315;29;20058;-72
2023/05/08 12:27:03;;;;;;;24.90;14.60;;;;;;;;;;4897875;29;20087;-69
2023/05/08 12:44:22;;;;;;;24.00;13.87;;;;;;;;;;4857113;29;20032;-70
2023/05/08 12:46:57;;;;;;;24.73;13.52;;;;;;;;;;4914517;29;20059;-72
2023/05/08 12:49:25;;;;;;;24.17;14.27;;;;;;;;;;4918651;28;20126;-74
2023/05/08 12:51:59;;;;;;;25.75;13.43;;;;;;;;;;4926329;28;20060;-69
2023/05/08 12:54:37;;;;;;;25.13;13.20;;;;;;;;;;4997156;28;20061;-73
2023/05/08 12:57:08;;;;;;;23.60;13.18;;;;;;;;;;4998050;28;20049;-68
2023/05/08 12:59:39;;;;;;;24.52;12.93;;;;;;;;;;5002510;28;20049;-69
2023/05/08 13:02:12;;;;;;;24.52;13.80;;;;;;;;;;4985598;28;20092;-73
2023/05/08 13:04:41;;;;;;;22.58;13.75;;;;;;;;;;4997449;28;20054;-72
2023/05/08 13:07:08;;;;;;;23.83;13.45;;;;;;;;;;5007868;28;20050;-71
2023/05/08 13:09:42;;;;;;;22.27;13.43;;;;;;;;;;4993142;28;20060;-68
2023/05/08 13:12:11;;;;;;;21.75;13.05;;;;;;;;;;4966490;28;20049;-72
2023/05/08 13:14:44;;;;;;;22.20;13.27;;;;;;;;;;5015164;28;20075;-73
2023/05/08 13:17:17;;;;;;;24.20;13.25;;;;;;;;;;5027061;28;20049;-69
2023/05/08 13:19:43;;;;;;;22.27;12.90;;;;;;;;;;5008635;28;20064;-71
2023/05/08 13:22:18;;;;;;;23.48;13.38;;;;;;;;;;4908530;28;20170;-74
2023/05/08 13:24:58;;;;;;;24.23;13.27;;;;;;;;;;4920362;29;20055;-73
2023/05/08 13:27:27;;;;;;;23.25;13.95;;;;;;;;;;4918108;29;20109;-73
2023/05/08 13:37:41;;;;;;;26.73;13.70;;;;;;;;;;4849369;29;20231;-71
2023/05/08 13:40:11;;;;;;;24.27;13.80;;;;;;;;;;4943544;28;20050;-72
2023/05/08 13:42:38;;;;;;;21.67;13.02;;;;;;;;;;4950175;28;20068;-72
2023/05/08 13:45:14;;;;;;;23.75;13.60;;;;;;;;;;4987605;28;20095;-71
2023/05/08 13:47:43;;;;;;;23.70;13.93;;;;;;;;;;4997776;28;20053;-72
2023/05/08 13:50:13;;;;;;;23.15;13.40;;;;;;;;;;5025628;28;20053;-73
2023/05/08 13:52:43;;;;;;;22.88;12.18;;;;;;;;;;5000053;28;20062;-70
2023/05/08 13:55:12;;;;;;;22.98;13.50;;;;;;;;;;4999338;28;20049;-68
2023/05/08 13:57:42;;;;;;;24.30;13.10;;;;;;;;;;5015701;28;20061;-76
2023/05/08 14:00:14;;;;;;;21.95;12.35;;;;;;;;;;4999601;28;20056;-72
2023/05/08 14:02:41;;;;;;;21.95;12.20;;;;;;;;;;4997656;28;20068;-72
2023/05/08 14:05:08;;;;;;;20.20;11.98;;;;;;;;;;4998132;28;20050;-71
2023/05/08 14:07:37;;;;;;;19.40;11.25;;;;;;;;;;4997301;28;20081;-72
2023/05/08 14:10:11;;;;;;;19.15;11.32;;;;;;;;;;5002947;28;20049;-73
2023/05/08 14:12:40;;;;;;;22.25;11.70;;;;;;;;;;5003123;28;20057;-67
2023/05/08 14:15:08;;;;;;;19.58;11.60;;;;;;;;;;5006829;28;20050;-74
2023/05/08 14:17:41;;;;;;;19.42;10.55;;;;;;;;;;5014904;28;20243;-73
2023/05/08 14:20:10;;;;;;;18.73;11.27;;;;;;;;;;5013178;28;20055;-70
2023/05/08 14:22:47;;;;;;;;;;;;;;;;;;;;;
2023/05/08 14:25:16;;;;;;;17.98;10.45;;;;;;;;;;4983611;28;20074;-69
2023/05/08 14:27:43;;;;;;;18.52;10.35;;;;;;;;;;4998977;28;20156;-69
2023/05/08 14:30:11;;;;;;;20.55;11.00;;;;;;;;;;4997969;28;20080;-72
2023/05/08 14:32:38;;;;;;;16.42;9.73;;;;;;;;;;4990180;28;20057;-72
2023/05/08 14:35:05;;;;;;;19.90;10.05;;;;;;;;;;5004576;28;20112;-72
2023/05/08 14:37:31;;;;;;;18.60;10.82;;;;;;;;;;4999326;28;20058;-72
2023/05/08 14:39:58;;;;;;;16.67;10.15;;;;;;;;;;4993974;28;20085;-66
2023/05/08 14:42:28;;;;;;;18.52;10.35;;;;;;;;;;4991687;28;20057;-72
2023/05/08 14:45:00;;;;;;;19.63;10.07;;;;;;;;;;5009112;28;20069;-72
2023/05/08 14:47:31;;;;;;;19.08;9.82;;;;;;;;;;4999055;28;20054;-72
2023/05/08 14:49:57;;;;;;;17.15;9.48;;;;;;;;;;4995989;28;20054;-71
2023/05/08 14:52:26;;;;;;;19.38;10.35;;;;;;;;;;4989422;28;20049;-68
2023/05/08 14:54:53;;;;;;;18.15;10.27;;;;;;;;;;4997943;28;20053;-73
2023/05/08 14:57:19;;;;;;;17.38;9.63;;;;;;;;;;5000964;28;20956;-76
2023/05/08 14:59:50;;;;;;;18.65;9.15;;;;;;;;;;4978941;28;20060;-71
2023/05/08 15:02:19;;;;;;;17.95;9.52;;;;;;;;;;4919395;28;20070;-70
2023/05/08 15:04:45;;;;;;;;;;;;;;;;;;4943958;28;20067;-70
2023/05/08 15:07:12;;;;;;;16.27;9.18;;;;;;;;;;4977710;28;19933;-76
2023/05/08 15:09:39;;;;;;;17.90;9.25;;;;;;;;;;4999466;28;20061;-70
2023/05/08 15:12:06;;;;;;;17.02;10.00;;;;;;;;;;4958392;28;20139;-71
2023/05/08 15:14:34;;;;;;;17.25;9.60;;;;;;;;;;5016286;28;20080;-75
2023/05/08 15:17:09;;;;;;;16.73;8.95;;;;;;;;;;5009503;28;20132;-76
2023/05/08 15:19:36;;;;;;;19.30;9.43;;;;;;;;;;5018860;28;20048;-70
2023/05/08 15:27:08;;;;;;;15.77;9.23;;;;;;;;;;4855113;29;20064;-73
2023/05/08 15:29:50;;;;;;;15.68;9.27;;;;;;;;;;4847305;29;20135;-76
2023/05/08 15:32:33;;;;;;;19.17;10.98;;;;;;;;;;4814596;29;20135;-70
2023/05/08 15:35:08;;;;;;;17.45;9.70;;;;;;;;;;4896309;29;20058;-73
2023/05/08 15:37:35;;;;;;;20.83;11.13;;;;;;;;;;4932916;28;20059;-72
2023/05/08 15:40:06;;;;;;;18.55;10.63;;;;;;;;;;4931774;28;20136;-72
2023/05/08 15:42:35;;;;;;;20.23;10.23;;;;;;;;;;4946565;28;20220;-74
2023/05/08 15:45:04;;;;;;;18.33;10.35;;;;;;;;;;4989972;28;20069;-75
2023/05/08 15:47:31;;;;;;;19.92;10.07;;;;;;;;;;4997185;28;20061;-70
2023/05/08 15:49:57;;;;;;;19.13;10.57;;;;;;;;;;4977651;28;20053;-70
2023/05/08 16:14:13;;;;;;;20.70;11.77;;;;;;;;;;4823904;29;20295;-71
2023/05/08 16:16:42;;;;;;;22.77;12.07;;;;;;;;;;4864778;29;20329;-70
2023/05/08 16:19:11;;;;;;;23.45;10.63;;;;;;;;;;4923351;28;20055;-74
2023/05/08 16:21:45;;;;;;;24.50;12.57;;;;;;;;;;4896495;28;20064;-69
2023/05/08 16:24:12;;;;;;;28.25;13.75;;;;;;;;;;4904503;28;20051;-75
2023/05/08 16:26:39;;;;;;;23.10;12.15;;;;;;;;;;4939272;28;20055;-78
2023/05/08 16:29:15;;;;;;;24.00;12.93;;;;;;;;;;4973815;28;20074;-72
2023/05/08 16:31:47;;;;;;;21.75;11.23;;;;;;;;;;4951919;28;20213;-71
2023/05/08 16:34:16;;;;;;;24.17;12.85;;;;;;;;;;4883654;29;20043;-70
2023/05/08 16:36:49;;;;;;;24.23;13.35;;;;;;;;;;4888272;29;20052;-76
2023/05/08 16:39:21;;;;;;;26.85;14.43;;;;;;;;;;4891020;28;20059;-74
2023/05/08 16:47:04;;;;;;;25.08;13.18;;;;;;;;;;5060335;27;20472;-70
2023/05/08 16:49:37;;;;;;;23.88;13.25;;;;;;;;;;5056768;28;20055;-70
2023/05/08 16:52:06;;;;;;;25.80;13.75;;;;;;;;;;5010109;28;20051;-74
2023/05/08 16:54:35;;;;;;;25.35;13.65;;;;;;;;;;4982975;28;20054;-74
2023/05/08 16:57:06;;;;;;;27.35;14.07;;;;;;;;;;4984478;28;20050;-68
2023/05/08 16:59:36;;;;;;;24.73;13.52;;;;;;;;;;4986502;28;20050;-71
2023/05/08 17:02:10;;;;;;;25.65;13.23;;;;;;;;;;4977602;28;20235;-72
2023/05/08 17:04:37;;;;;;;27.92;14.05;;;;;;;;;;4992961;28;20093;-71
2023/05/08 17:07:13;;;;;;;28.33;13.68;;;;;;;;;;4981461;28;20054;-77
2023/05/08 17:09:51;;;;;;;26.52;13.55;;;;;;;;;;4998051;28;20498;-74
2023/05/08 17:12:18;;;;;;;30.33;14.60;;;;;;;;;;4970879;28;20129;-74
2023/05/08 17:14:48;;;;;;;29.65;14.48;;;;;;;;;;5019477;28;20162;-70
2023/05/08 17:17:16;;;;;;;25.77;13.30;;;;;;;;;;5016759;28;20060;-76
2023/05/08 17:19:43;;;;;;;31.33;16.08;;;;;;;;;;5021101;28;20132;-70
2023/05/08 17:22:15;;;;;;;29.33;15.07;;;;;;;;;;5031893;28;20072;-76
2023/05/08 17:24:43;;;;;;;27.42;14.10;;;;;;;;;;4999316;28;20059;-72
2023/05/08 17:27:09;;;;;;;27.45;13.43;;;;;;;;;;5041258;28;20041;-68
2023/05/08 17:29:36;;;;;;;25.38;13.95;;;;;;;;;;5046681;28;20048;-73
2023/05/08 17:32:03;;;;;;;29.83;14.43;;;;;;;;;;5042588;28;20048;-72
2023/05/08 17:34:31;;;;;;;28.65;14.55;;;;;;;;;;4974041;28;20312;-71
2023/05/08 17:36:58;;;;;;;28.92;14.55;;;;;;;;;;5003423;28;20045;-72
2023/05/08 17:39:25;;;;;;;30.98;15.55;;;;;;;;;;4987844;28;20058;-70
2023/05/08 17:41:52;;;;;;;30.90;14.15;;;;;;;;;;5024691;28;20069;-73
2023/05/08 17:44:22;;;;;;;30.05;15.25;;;;;;;;;;4942061;28;20063;-72
2023/05/08 17:47:10;;;;;;;27.83;14.07;;;;;;;;;;4983195;28;20042;-73
2023/05/08 17:49:40;;;;;;;30.00;14.38;;;;;;;;;;4977563;28;20054;-75
2023/05/08 17:52:06;;;;;;;31.63;15.73;;;;;;;;;;4978078;28;20057;-68
2023/05/08 17:54:33;;;;;;;34.20;16.30;;;;;;;;;;4981875;28;20056;-74
2023/05/08 17:57:02;;;;;;;30.75;16.35;;;;;;;;;;5045630;28;20061;-75
2023/05/08 17:59:29;;;;;;;36.47;16.60;;;;;;;;;;5032362;28;20053;-71
2023/05/08 18:01:59;;;;;;;42.20;19.45;;;;;;;;;;5032965;28;20098;-69
2023/05/08 18:04:26;;;;;;;41.78;18.77;;;;;;;;;;5010806;28;20064;-73
2023/05/08 18:07:02;;;;;;;35.78;18.25;;;;;;;;;;5032479;28;20060;-68
2023/05/08 18:09:31;;;;;;;36.30;18.60;;;;;;;;;;5040230;28;20053;-71
2023/05/08 18:12:01;;;;;;;35.47;17.17;;;;;;;;;;5037796;28;20079;-72
2023/05/08 18:14:29;;;;;;;37.63;18.80;;;;;;;;;;5013291;28;20065;-72
2023/05/08 18:17:00;;;;;;;41.92;18.88;;;;;;;;;;5034858;28;20057;-74
2023/05/08 18:19:27;;;;;;;40.67;19.85;;;;;;;;;;5031387;28;20105;-69
2023/05/08 18:21:53;;;;;;;39.05;18.98;;;;;;;;;;5037825;28;20078;-69
2023/05/08 18:24:26;;;;;;;37.17;18.23;;;;;;;;;;4985738;28;20368;-74
2023/05/08 18:26:56;;;;;;;37.65;17.60;;;;;;;;;;5031379;28;20057;-72
2023/05/08 18:29:25;;;;;;;46.33;19.63;;;;;;;;;;5010457;28;20076;-72
2023/05/08 18:31:51;;;;;;;40.17;17.98;;;;;;;;;;5015450;28;20053;-67
2023/05/08 18:34:20;;;;;;;44.60;19.92;;;;;;;;;;5010441;28;20060;-73
2023/05/08 18:36:47;;;;;;;46.42;20.50;;;;;;;;;;5022180;28;20135;-72
2023/05/08 18:39:13;;;;;;;44.47;20.10;;;;;;;;;;5008576;28;20077;-71
2023/05/08 18:41:41;;;;;;;41.15;19.83;;;;;;;;;;5022749;28;20056;-71
2023/05/08 18:44:09;;;;;;;55.38;22.08;;;;;;;;;;4991004;28;20060;-72
2023/05/08 18:46:35;;;;;;;46.08;21.65;;;;;;;;;;5038065;28;20107;-69
2023/05/08 18:49:07;;;;;;;51.05;21.80;;;;;;;;;;5037591;28;20156;-68
2023/05/08 18:51:38;;;;;;;47.53;21.25;;;;;;;;;;5035457;28;20081;-73
2023/05/08 18:54:25;;;;;;;;;;;;;;;;;;;;;
2023/05/08 18:56:57;;;;;;;39.90;19.42;;;;;;;;;;5042113;28;20061;-75
2023/05/08 18:59:28;;;;;;;42.78;19.45;;;;;;;;;;5033747;28;20163;-69
2023/05/08 19:01:59;;;;;;;45.10;20.02;;;;;;;;;;5032604;28;20161;-70
2023/05/08 19:04:26;;;;;;;43.40;20.63;;;;;;;;;;5033832;28;20067;-74
2023/05/08 19:06:58;;;;;;;42.90;19.60;;;;;;;;;;5040899;28;20057;-73
2023/05/08 19:09:25;;;;;;;42.67;18.33;;;;;;;;;;5031771;28;20057;-71
2023/05/08 19:11:52;;;;;;;45.67;20.10;;;;;;;;;;5031762;28;20060;-73
2023/05/08 19:14:22;;;;;;;42.22;19.63;;;;;;;;;;4994656;28;20061;-70
2023/05/08 19:16:49;;;;;;;45.20;19.10;;;;;;;;;;5028165;28;20072;-71
2023/05/08 19:19:16;;;;;;;40.80;18.98;;;;;;;;;;5032077;28;20183;-67
2023/05/08 19:21:53;;;;;;;44.97;19.52;;;;;;;;;;5034575;28;20059;-70
2023/05/08 19:24:22;;;;;;;36.97;18.27;;;;;;;;;;5006642;28;20053;-75
2023/05/08 19:26:51;;;;;;;43.25;19.15;;;;;;;;;;5034901;28;20048;-72
2023/05/08 19:29:17;;;;;;;39.42;18.63;;;;;;;;;;5034082;28;20228;-72
2023/05/08 19:31:51;;;;;;;37.72;18.23;;;;;;;;;;5034979;28;20074;-74
2023/05/08 19:34:19;;;;;;;42.25;17.20;;;;;;;;;;4996951;28;20069;-70
2023/05/08 19:36:47;;;;;;;37.65;18.67;;;;;;;;;;5033298;28;21512;-72
2023/05/08 19:39:14;;;;;;;;;;;;;;;;;;5029124;28;20160;-69
2023/05/08 19:41:42;;;;;;;38.55;17.20;;;;;;;;;;5031245;28;19935;-70
2023/05/08 19:44:14;;;;;;;38.83;18.88;;;;;;;;;;4978869;28;20042;-71
2023/05/08 19:46:42;;;;;;;33.63;16.83;;;;;;;;;;5000194;28;20064;-70
2023/05/08 19:49:16;;;;;;;38.58;18.38;;;;;;;;;;5020404;28;20056;-72
2023/05/08 19:51:47;;;;;;;36.67;18.40;;;;;;;;;;5053219;28;20075;-71
2023/05/08 19:54:13;;;;;;;35.15;16.90;;;;;;;;;;4996027;28;20064;-69
2023/05/08 19:56:42;;;;;;;35.80;16.65;;;;;;;;;;5041511;28;20061;-71
2023/05/08 19:59:13;;;;;;;40.85;17.70;;;;;;;;;;5027864;28;20309;-74
2023/05/08 20:01:39;;;;;;;37.10;16.80;;;;;;;;;;5036122;28;20053;-71
2023/05/08 20:04:09;;;;;;;37.20;16.08;;;;;;;;;;4998350;28;20061;-66
2023/05/08 20:06:41;;;;;;;36.17;17.50;;;;;;;;;;5015244;28;20056;-73
2023/05/08 20:09:13;;;;;;;34.20;16.85;;;;;;;;;;5037939;28;20071;-73
2023/05/08 20:11:42;;;;;;;36.65;16.27;;;;;;;;;;5056625;28;20066;-71
2023/05/08 20:14:09;;;;;;;36.70;15.90;;;;;;;;;;5024256;28;20048;-70
2023/05/08 20:16:38;;;;;;;36.25;16.20;;;;;;;;;;5036809;28;20091;-69
2023/05/08 20:19:07;;;;;;;30.42;16.02;;;;;;;;;;5027252;28;20061;-72
2023/05/08 20:21:33;;;;;;;34.78;15.48;;;;;;;;;;5035155;28;20057;-69
2023/05/08 20:24:06;;;;;;;37.75;16.33;;;;;;;;;;5008500;28;20071;-71
2023/05/08 20:26:36;;;;;;;32.60;14.93;;;;;;;;;;5037463;28;20060;-72
2023/05/08 20:29:11;;;;;;;36.17;15.88;;;;;;;;;;5025942;28;20095;-71
2023/05/08 20:31:44;;;;;;;;;;;;;;;;;;5036107;28;20052;-71
2023/05/08 20:34:11;;;;;;;31.25;13.57;;;;;;;;;;5002562;28;19928;-73
2023/05/08 20:36:38;;;;;;;35.50;15.40;;;;;;;;;;5036165;28;20136;-71
2023/05/08 20:39:05;;;;;;;30.90;13.90;;;;;;;;;;5025391;28;20060;-72
2023/05/08 20:41:32;;;;;;;33.47;15.05;;;;;;;;;;5036765;28;20061;-70
2023/05/08 20:43:59;;;;;;;31.15;14.05;;;;;;;;;;5018127;28;20308;-68
2023/05/08 20:46:25;;;;;;;30.48;14.77;;;;;;;;;;5032539;28;20104;-73
2023/05/08 20:48:52;;;;;;;32.40;14.32;;;;;;;;;;5033563;28;20114;-69
2023/05/08 20:51:18;;;;;;;32.97;16.02;;;;;;;;;;5025251;28;20139;-71
2023/05/08 20:53:45;;;;;;;27.05;13.70;;;;;;;;;;5034317;28;20115;-73
2023/05/08 20:56:14;;;;;;;29.63;13.18;;;;;;;;;;5032444;28;20163;-68
2023/05/08 20:58:40;;;;;;;31.38;14.15;;;;;;;;;;5034869;28;20068;-67
2023/05/08 21:01:07;;;;;;;28.50;13.95;;;;;;;;;;5026488;28;20084;-66
2023/05/08 21:03:33;;;;;;;33.65;14.25;;;;;;;;;;5034330;28;20071;-68
2023/05/08 21:05:59;;;;;;;30.45;13.40;;;;;;;;;;5032211;28;20060;-70
2023/05/08 21:08:26;;;;;;;28.85;14.27;;;;;;;;;;5041775;28;20045;-69
2023/05/08 21:10:52;;;;;;;31.63;13.98;;;;;;;;;;5044957;28;20081;-72
2023/05/08 21:13:20;;;;;;;27.75;12.63;;;;;;;;;;5033983;28;20053;-67
2023/05/08 21:15:48;;;;;;;29.02;13.93;;;;;;;;;;5032041;28;20114;-71
2023/05/08 21:18:14;;;;;;;30.33;13.70;;;;;;;;;;5035417;28;20056;-70
2023/05/08 21:20:44;;;;;;;30.48;13.40;;;;;;;;;;5032296;28;20061;-68
2023/05/08 21:23:10;;;;;;;28.90;12.63;;;;;;;;;;5028234;28;20150;-73